Time;durP1;ratioP1;P1;durP2;ratioP2;P2;SDS_P1;SDS_P2;PMS_P1;PMS_P2;Temp;Humidity;BMP_temperature;BMP_pressure;BME280_temperature;BME280_humidity;BME280_pressure;Samples;Min_cycle;Max_cycle;Signal;HPM_P1;HPM_P2
2023/10/25 00:00:00;;;;;;;0.50;0.50;;;;;;;;;;1027883;28;20081;-74
2023/10/25 00:00:30;;;;;;;19.83;1.63;;;;;;;;;;1027577;28;20031;-74
2023/10/25 00:01:01;;;;;;;1.70;1.60;;;;;;;;;;1027739;28;20113;-74
2023/10/25 00:01:31;;;;;;;2.10;1.85;;;;;;;;;;1027630;28;20597;-74
2023/10/25 00:02:02;;;;;;;4.20;2.05;;;;;;;;;;1027727;28;20023;-74
2023/10/25 00:02:32;;;;;;;1.02;0.98;;;;;;;;;;1027699;28;20019;-74
2023/10/25 00:03:03;;;;;;;1.38;1.27;;;;;;;;;;1027723;28;20604;-74
2023/10/25 00:03:34;;;;;;;0.55;0.35;;;;;;;;;;1025571;28;20026;-74
2023/10/25 00:04:04;;;;;;;2.30;2.10;;;;;;;;;;1021933;29;20028;-74
2023/10/25 00:04:35;;;;;;;0.85;0.75;;;;;;;;;;1021773;29;20135;-74
2023/10/25 00:05:05;;;;;;;0.57;0.57;;;;;;;;;;1023885;29;20027;-74
2023/10/25 00:05:35;;;;;;;0.85;0.63;;;;;;;;;;1024055;28;20020;-73
2023/10/25 00:06:06;;;;;;;2.72;2.53;;;;;;;;;;1024144;28;20023;-73
2023/10/25 00:06:36;;;;;;;1.65;0.90;;;;;;;;;;1023116;29;20038;-74
2023/10/25 00:07:07;;;;;;;1.08;1.05;;;;;;;;;;1024215;28;20048;-74
2023/10/25 00:07:37;;;;;;;0.77;0.77;;;;;;;;;;1027680;28;20014;-74
2023/10/25 00:08:08;;;;;;;0.88;0.88;;;;;;;;;;1027883;28;20037;-74
2023/10/25 00:08:38;;;;;;;1.20;1.17;;;;;;;;;;1027686;28;20022;-74
2023/10/25 00:09:09;;;;;;;0.65;0.65;;;;;;;;;;1027754;28;20526;-74
2023/10/25 00:09:39;;;;;;;1.02;0.57;;;;;;;;;;1023714;28;20491;-74
2023/10/25 00:10:10;;;;;;;1.15;1.08;;;;;;;;;;1024157;28;20031;-74
2023/10/25 00:10:41;;;;;;;0.85;0.85;;;;;;;;;;1024008;28;20025;-74
2023/10/25 00:11:11;;;;;;;1.30;1.20;;;;;;;;;;1023480;28;20523;-74
2023/10/25 00:11:41;;;;;;;1.90;0.68;;;;;;;;;;1023634;29;20499;-74
2023/10/25 00:12:12;;;;;;;3.10;2.28;;;;;;;;;;1023844;29;20118;-74
2023/10/25 00:12:42;;;;;;;0.77;0.77;;;;;;;;;;1023679;29;20024;-73
2023/10/25 00:13:13;;;;;;;1.45;1.40;;;;;;;;;;1024079;28;20442;-73
2023/10/25 00:13:43;;;;;;;0.20;0.20;;;;;;;;;;1024070;28;20117;-74
2023/10/25 00:14:14;;;;;;;2.30;1.58;;;;;;;;;;1025911;28;20407;-74
2023/10/25 00:14:44;;;;;;;2.30;1.33;;;;;;;;;;1025721;28;20098;-74
2023/10/25 00:15:15;;;;;;;0.20;0.20;;;;;;;;;;1025337;28;20065;-73
2023/10/25 00:15:45;;;;;;;1.65;1.38;;;;;;;;;;1023716;28;20034;-74
2023/10/25 00:16:16;;;;;;;22.13;0.68;;;;;;;;;;1023924;28;20077;-74
2023/10/25 00:16:46;;;;;;;0.93;0.93;;;;;;;;;;1024199;28;20023;-74
2023/10/25 00:17:16;;;;;;;0.40;0.40;;;;;;;;;;1024033;28;20554;-74
2023/10/25 00:17:47;;;;;;;1.10;1.10;;;;;;;;;;1023803;28;20140;-74
2023/10/25 00:18:18;;;;;;;2.38;2.20;;;;;;;;;;1023861;29;20027;-74
2023/10/25 00:18:48;;;;;;;0.40;0.40;;;;;;;;;;1024279;28;20118;-74
2023/10/25 00:19:19;;;;;;;1.25;0.73;;;;;;;;;;1023677;29;20034;-74
2023/10/25 00:19:51;;;;;;;1.48;1.02;;;;;;;;;;1024113;29;20034;-74
2023/10/25 00:20:21;;;;;;;1.65;1.13;;;;;;;;;;1024014;28;20042;-74
2023/10/25 00:20:52;;;;;;;1.40;0.75;;;;;;;;;;1024123;28;20122;-74
2023/10/25 00:21:23;;;;;;;11.35;1.85;;;;;;;;;;1023831;28;20475;-74
2023/10/25 00:21:53;;;;;;;1.83;1.08;;;;;;;;;;1024071;28;20015;-74
2023/10/25 00:22:24;;;;;;;8.52;3.30;;;;;;;;;;1024021;28;20479;-74
2023/10/25 00:22:54;;;;;;;0.20;0.20;;;;;;;;;;1024020;28;20364;-74
2023/10/25 00:23:25;;;;;;;0.28;0.28;;;;;;;;;;1027556;28;20033;-74
2023/10/25 00:23:55;;;;;;;2.17;1.58;;;;;;;;;;1028016;28;20029;-74
2023/10/25 00:24:26;;;;;;;2.90;2.00;;;;;;;;;;1025475;28;20802;-74
2023/10/25 00:24:56;;;;;;;1.48;1.38;;;;;;;;;;1025851;28;20114;-74
2023/10/25 00:25:27;;;;;;;1.35;1.25;;;;;;;;;;1023528;29;20035;-74
2023/10/25 00:25:57;;;;;;;1.08;1.02;;;;;;;;;;1023878;29;20541;-74
2023/10/25 00:26:27;;;;;;;0.43;0.43;;;;;;;;;;1025499;28;20030;-74
2023/10/25 00:26:58;;;;;;;1.83;1.33;;;;;;;;;;1025770;28;20015;-74
2023/10/25 00:27:28;;;;;;;2.65;1.17;;;;;;;;;;1021409;29;20034;-74
2023/10/25 00:27:59;;;;;;;0.77;0.77;;;;;;;;;;1022866;29;20079;-74
2023/10/25 00:28:29;;;;;;;1.13;0.63;;;;;;;;;;1023666;29;20034;-74
2023/10/25 00:29:00;;;;;;;7.55;3.03;;;;;;;;;;1023783;29;20102;-74
2023/10/25 00:29:30;;;;;;;0.70;0.60;;;;;;;;;;1023932;28;20027;-74
2023/10/25 00:30:01;;;;;;;1.27;0.95;;;;;;;;;;1024122;28;20376;-74
2023/10/25 00:30:31;;;;;;;1.02;0.95;;;;;;;;;;1023836;29;20082;-74
2023/10/25 00:31:01;;;;;;;0.75;0.75;;;;;;;;;;1023925;28;20034;-74
2023/10/25 00:31:32;;;;;;;0.60;0.60;;;;;;;;;;1023411;28;20080;-74
2023/10/25 00:32:05;;;;;;;3.92;2.47;;;;;;;;;;1023676;29;20462;-74
2023/10/25 00:32:35;;;;;;;4.75;1.48;;;;;;;;;;1023493;28;20031;-74
2023/10/25 00:33:06;;;;;;;1.65;1.02;;;;;;;;;;1024094;28;20023;-74
2023/10/25 00:33:36;;;;;;;2.40;2.20;;;;;;;;;;1027464;28;20019;-74
2023/10/25 00:34:07;;;;;;;1.75;1.65;;;;;;;;;;1027698;28;20498;-74
2023/10/25 00:34:37;;;;;;;5.50;0.98;;;;;;;;;;1023718;29;20023;-74
2023/10/25 00:35:08;;;;;;;1.35;1.25;;;;;;;;;;1023773;29;20019;-74
2023/10/25 00:35:38;;;;;;;1.95;1.45;;;;;;;;;;1021476;29;20603;-74
2023/10/25 00:36:09;;;;;;;4.63;1.55;;;;;;;;;;1025825;28;20020;-74
2023/10/25 00:36:39;;;;;;;0.32;0.32;;;;;;;;;;1025858;28;20388;-72
2023/10/25 00:37:10;;;;;;;1.63;1.48;;;;;;;;;;1025864;28;20050;-73
2023/10/25 00:37:41;;;;;;;0.93;0.88;;;;;;;;;;1024275;28;20078;-73
2023/10/25 00:38:11;;;;;;;3.63;1.30;;;;;;;;;;1024212;28;20037;-73
2023/10/25 00:38:42;;;;;;;19.10;3.05;;;;;;;;;;1024546;28;20488;-73
2023/10/25 00:39:13;;;;;;;1.35;1.25;;;;;;;;;;1024483;28;20448;-73
2023/10/25 00:39:43;;;;;;;2.55;1.85;;;;;;;;;;1024396;28;20019;-73
2023/10/25 00:40:13;;;;;;;3.17;0.80;;;;;;;;;;1024470;28;20106;-73
2023/10/25 00:40:44;;;;;;;0.40;0.40;;;;;;;;;;1024141;28;20027;-74
2023/10/25 00:41:15;;;;;;;3.45;2.78;;;;;;;;;;1023979;28;20027;-74
2023/10/25 00:41:45;;;;;;;0.95;0.90;;;;;;;;;;1023848;28;20015;-74
2023/10/25 00:42:16;;;;;;;4.90;2.15;;;;;;;;;;1023995;28;20027;-74
2023/10/25 00:42:46;;;;;;;2.80;2.58;;;;;;;;;;1023706;28;20114;-74
2023/10/25 00:43:20;;;;;;;7.40;3.47;;;;;;;;;;1023712;28;20027;-74
2023/10/25 00:43:51;;;;;;;0.88;0.88;;;;;;;;;;1027203;28;20046;-74
2023/10/25 00:44:21;;;;;;;0.90;0.90;;;;;;;;;;1027622;28;20027;-74
2023/10/25 00:44:52;;;;;;;7.90;2.72;;;;;;;;;;1026691;28;20058;-73
2023/10/25 00:45:22;;;;;;;1.25;1.17;;;;;;;;;;1027261;28;20039;-73
2023/10/25 00:45:53;;;;;;;2.50;1.45;;;;;;;;;;1024082;28;20026;-73
2023/10/25 00:46:24;;;;;;;2.95;0.93;;;;;;;;;;1023893;28;20058;-73
2023/10/25 00:46:55;;;;;;;3.78;2.13;;;;;;;;;;1023764;28;20027;-73
2023/10/25 00:47:25;;;;;;;2.35;2.13;;;;;;;;;;1021459;29;20036;-73
2023/10/25 00:47:56;;;;;;;1.42;1.33;;;;;;;;;;1021941;29;20028;-73
2023/10/25 00:48:27;;;;;;;3.97;0.85;;;;;;;;;;1021492;29;20036;-73
2023/10/25 00:48:58;;;;;;;1.45;1.20;;;;;;;;;;1025645;28;20195;-73
2023/10/25 00:49:29;;;;;;;3.70;0.98;;;;;;;;;;1023864;28;20031;-73
2023/10/25 00:49:59;;;;;;;3.50;1.27;;;;;;;;;;1023735;29;20027;-72
2023/10/25 00:50:30;;;;;;;18.98;1.85;;;;;;;;;;1022785;28;20027;-73
2023/10/25 00:51:01;;;;;;;0.60;0.60;;;;;;;;;;1021775;29;20024;-74
2023/10/25 00:51:31;;;;;;;1.10;0.73;;;;;;;;;;1021336;29;20016;-74
2023/10/25 00:52:02;;;;;;;0.98;0.95;;;;;;;;;;1025695;28;20030;-74
2023/10/25 00:52:32;;;;;;;22.10;3.28;;;;;;;;;;1023424;28;20034;-74
2023/10/25 00:53:04;;;;;;;14.13;4.15;;;;;;;;;;1023775;29;20027;-74
2023/10/25 00:53:36;;;;;;;4.05;2.90;;;;;;;;;;1023508;29;20027;-74
2023/10/25 00:54:06;;;;;;;21.45;5.85;;;;;;;;;;1023950;29;20058;-74
2023/10/25 00:54:37;;;;;;;18.13;6.32;;;;;;;;;;1022857;29;20027;-74
2023/10/25 00:55:07;;;;;;;47.35;14.38;;;;;;;;;;1024548;28;20027;-74
2023/10/25 00:55:38;;;;;;;23.55;13.55;;;;;;;;;;1021631;29;20373;-74
2023/10/25 00:56:10;;;;;;;35.72;13.00;;;;;;;;;;1021538;29;20118;-74
2023/10/25 00:56:41;;;;;;;52.05;17.60;;;;;;;;;;1021389;29;20075;-74
2023/10/25 00:57:12;;;;;;;27.05;10.68;;;;;;;;;;1019967;29;20636;-74
2023/10/25 00:57:42;;;;;;;43.67;13.50;;;;;;;;;;1023228;29;20023;-74
2023/10/25 00:58:13;;;;;;;17.13;9.32;;;;;;;;;;1023863;29;20035;-74
2023/10/25 00:58:44;;;;;;;36.25;6.72;;;;;;;;;;1023818;28;20031;-74
2023/10/25 00:59:15;;;;;;;10.38;6.75;;;;;;;;;;1023714;28;20038;-74
2023/10/25 00:59:46;;;;;;;17.30;4.65;;;;;;;;;;1023824;28;20399;-74
2023/10/25 01:00:17;;;;;;;28.13;11.07;;;;;;;;;;1023958;28;20031;-74
2023/10/25 01:00:47;;;;;;;25.98;6.57;;;;;;;;;;1027452;28;20027;-74
2023/10/25 01:01:18;;;;;;;48.47;10.88;;;;;;;;;;1027365;28;20054;-74
2023/10/25 01:01:50;;;;;;;19.33;7.97;;;;;;;;;;1027502;28;20058;-74
2023/10/25 01:02:21;;;;;;;26.70;9.90;;;;;;;;;;1026510;28;20511;-74
2023/10/25 01:02:51;;;;;;;30.25;9.25;;;;;;;;;;1023683;29;20023;-74
2023/10/25 01:03:22;;;;;;;22.48;9.13;;;;;;;;;;1022736;29;20031;-74
2023/10/25 01:03:53;;;;;;;36.92;13.60;;;;;;;;;;1023135;29;20117;-74
2023/10/25 01:04:23;;;;;;;33.90;16.40;;;;;;;;;;1023321;29;20086;-74
2023/10/25 01:04:54;;;;;;;59.30;24.35;;;;;;;;;;1023549;29;20035;-74
2023/10/25 01:05:24;;;;;;;47.38;23.50;;;;;;;;;;1023670;28;20019;-73
2023/10/25 01:05:55;;;;;;;70.20;21.60;;;;;;;;;;1023948;29;20027;-73
2023/10/25 01:06:25;;;;;;;30.90;14.23;;;;;;;;;;1023637;28;20019;-73
2023/10/25 01:06:56;;;;;;;10.07;4.95;;;;;;;;;;1023932;28;20030;-73
2023/10/25 01:07:27;;;;;;;2.80;2.15;;;;;;;;;;1025424;28;20029;-72
2023/10/25 01:07:57;;;;;;;2.28;2.08;;;;;;;;;;1025735;28;20094;-73
2023/10/25 01:08:28;;;;;;;4.75;3.35;;;;;;;;;;1025181;28;20022;-73
2023/10/25 01:08:59;;;;;;;10.82;2.67;;;;;;;;;;1025679;28;20030;-73
2023/10/25 01:09:30;;;;;;;4.38;2.60;;;;;;;;;;1023698;28;20031;-74
2023/10/25 01:10:01;;;;;;;5.38;3.47;;;;;;;;;;1024046;28;20114;-74
2023/10/25 01:10:31;;;;;;;9.55;4.38;;;;;;;;;;1022690;28;20031;-74
2023/10/25 01:11:02;;;;;;;5.05;3.97;;;;;;;;;;1023913;28;20499;-74
2023/10/25 01:11:32;;;;;;;7.88;3.03;;;;;;;;;;1023395;29;20027;-74
2023/10/25 01:12:03;;;;;;;3.30;2.00;;;;;;;;;;1023943;28;20028;-74
2023/10/25 01:12:33;;;;;;;14.40;7.97;;;;;;;;;;1023351;29;20554;-74
2023/10/25 01:13:04;;;;;;;4.40;4.00;;;;;;;;;;1023796;29;20526;-74
2023/10/25 01:13:34;;;;;;;4.75;2.75;;;;;;;;;;1023628;29;20109;-74
2023/10/25 01:14:05;;;;;;;8.68;4.68;;;;;;;;;;1023360;28;20122;-74
2023/10/25 01:14:36;;;;;;;7.38;5.47;;;;;;;;;;1023577;29;20019;-74
2023/10/25 01:15:07;;;;;;;4.68;2.97;;;;;;;;;;1023738;29;20027;-74
2023/10/25 01:15:37;;;;;;;5.97;3.50;;;;;;;;;;1023317;29;20407;-73
2023/10/25 01:16:07;;;;;;;6.68;3.28;;;;;;;;;;1023706;28;20067;-73
2023/10/25 01:16:38;;;;;;;4.55;4.13;;;;;;;;;;1023748;28;20166;-73
2023/10/25 01:17:08;;;;;;;2.97;1.85;;;;;;;;;;1023786;28;20062;-73
2023/10/25 01:17:39;;;;;;;1.60;1.50;;;;;;;;;;1023138;28;20019;-73
2023/10/25 01:18:10;;;;;;;4.30;3.45;;;;;;;;;;1023691;28;20377;-72
2023/10/25 01:18:40;;;;;;;12.18;3.78;;;;;;;;;;1023791;28;20031;-72
2023/10/25 01:19:11;;;;;;;1.33;1.23;;;;;;;;;;1023907;28;20027;-72
2023/10/25 01:19:41;;;;;;;1.05;0.60;;;;;;;;;;1023892;28;20032;-73
2023/10/25 01:20:12;;;;;;;0.60;0.60;;;;;;;;;;1022981;28;20027;-74
2023/10/25 01:20:43;;;;;;;2.85;2.65;;;;;;;;;;1022722;28;20031;-74
2023/10/25 01:21:13;;;;;;;0.82;0.82;;;;;;;;;;1023516;29;20038;-74
2023/10/25 01:21:43;;;;;;;3.20;2.60;;;;;;;;;;1023255;29;20023;-74
2023/10/25 01:22:14;;;;;;;3.13;2.05;;;;;;;;;;1023344;29;20042;-74
2023/10/25 01:23:04;;;;;;;3.28;3.08;;;;;;;;;;1023777;28;20034;-74
2023/10/25 01:23:35;;;;;;;3.25;0.93;;;;;;;;;;1026931;28;20041;-74
2023/10/25 01:24:05;;;;;;;1.35;1.25;;;;;;;;;;1027336;28;20057;-74
2023/10/25 01:24:36;;;;;;;5.78;2.70;;;;;;;;;;1026118;28;20031;-74
2023/10/25 01:25:07;;;;;;;0.98;0.77;;;;;;;;;;1026337;28;20119;-74
2023/10/25 01:25:40;;;;;;;3.70;2.35;;;;;;;;;;1026659;28;20121;-74
2023/10/25 01:26:11;;;;;;;1.05;1.05;;;;;;;;;;1026971;28;20110;-74
2023/10/25 01:26:41;;;;;;;2.28;1.40;;;;;;;;;;1027191;28;20509;-73
2023/10/25 01:27:12;;;;;;;0.77;0.77;;;;;;;;;;1027232;28;20030;-72
2023/10/25 01:27:42;;;;;;;0.90;0.90;;;;;;;;;;1026868;28;20123;-72
2023/10/25 01:28:13;;;;;;;3.28;2.97;;;;;;;;;;1023226;29;20498;-73
2023/10/25 01:28:43;;;;;;;3.60;2.40;;;;;;;;;;1022969;28;20118;-74
2023/10/25 01:29:14;;;;;;;4.18;1.60;;;;;;;;;;1027249;28;20026;-74
2023/10/25 01:29:44;;;;;;;1.00;1.00;;;;;;;;;;1026573;28;20027;-74
2023/10/25 01:30:14;;;;;;;0.70;0.70;;;;;;;;;;1022035;29;20360;-73
2023/10/25 01:30:45;;;;;;;0.82;0.73;;;;;;;;;;1022205;29;20498;-74
2023/10/25 01:31:15;;;;;;;1.73;1.63;;;;;;;;;;1022587;29;20070;-74
2023/10/25 01:31:46;;;;;;;0.80;0.80;;;;;;;;;;1022797;28;20023;-74
2023/10/25 01:32:17;;;;;;;0.38;0.30;;;;;;;;;;1026750;28;20114;-74
2023/10/25 01:32:47;;;;;;;0.80;0.80;;;;;;;;;;1027028;28;20577;-74
2023/10/25 01:33:18;;;;;;;4.38;1.65;;;;;;;;;;1025836;28;20018;-74
2023/10/25 01:33:51;;;;;;;1.35;1.17;;;;;;;;;;1027068;28;20030;-74
2023/10/25 01:34:21;;;;;;;0.70;0.70;;;;;;;;;;1022813;29;20614;-74
2023/10/25 01:34:52;;;;;;;4.82;2.70;;;;;;;;;;1022101;29;20031;-74
2023/10/25 01:35:22;;;;;;;8.32;2.92;;;;;;;;;;1022954;29;20062;-74
2023/10/25 01:35:52;;;;;;;7.50;4.43;;;;;;;;;;1023179;29;20125;-74
2023/10/25 01:36:23;;;;;;;6.60;3.50;;;;;;;;;;1025820;28;20109;-74
2023/10/25 01:36:53;;;;;;;23.95;4.00;;;;;;;;;;1025093;28;20455;-74
2023/10/25 01:37:24;;;;;;;1.75;1.67;;;;;;;;;;1026395;28;20034;-74
2023/10/25 01:37:54;;;;;;;1.33;1.25;;;;;;;;;;1027100;28;20031;-74
2023/10/25 01:38:25;;;;;;;1.92;1.73;;;;;;;;;;1026797;28;20029;-74
2023/10/25 01:38:55;;;;;;;1.52;1.42;;;;;;;;;;1027057;28;20027;-74
2023/10/25 01:39:26;;;;;;;1.25;0.98;;;;;;;;;;1026798;28;20022;-74
2023/10/25 01:39:56;;;;;;;20.00;5.03;;;;;;;;;;1027173;28;20031;-74
2023/10/25 01:40:26;;;;;;;1.23;0.75;;;;;;;;;;1026938;28;20511;-74
2023/10/25 01:40:57;;;;;;;2.28;1.67;;;;;;;;;;1026980;28;20563;-74
2023/10/25 01:41:27;;;;;;;2.25;2.15;;;;;;;;;;1026888;28;20046;-74
2023/10/25 01:41:58;;;;;;;1.48;1.38;;;;;;;;;;1027223;28;20022;-74
2023/10/25 01:42:28;;;;;;;2.60;2.42;;;;;;;;;;1026278;28;20094;-75
2023/10/25 01:42:59;;;;;;;3.13;1.95;;;;;;;;;;1024862;28;20400;-75
2023/10/25 01:43:29;;;;;;;5.28;2.83;;;;;;;;;;1025892;28;20022;-75
2023/10/25 01:44:00;;;;;;;0.93;0.90;;;;;;;;;;1027187;28;20036;-75
2023/10/25 01:44:32;;;;;;;1.52;1.42;;;;;;;;;;1025747;28;20473;-75
2023/10/25 01:45:02;;;;;;;3.53;3.00;;;;;;;;;;1025636;28;20411;-75
2023/10/25 01:45:33;;;;;;;9.35;2.97;;;;;;;;;;1024964;28;20022;-75
2023/10/25 01:46:03;;;;;;;6.07;1.90;;;;;;;;;;1022712;29;20090;-74
2023/10/25 01:46:34;;;;;;;0.70;0.55;;;;;;;;;;1021286;29;20035;-75
2023/10/25 01:47:05;;;;;;;0.50;0.50;;;;;;;;;;1021352;29;21297;-74
2023/10/25 01:47:35;;;;;;;1.13;1.02;;;;;;;;;;1022297;28;20512;-75
2023/10/25 01:48:06;;;;;;;17.52;6.05;;;;;;;;;;1026668;28;20033;-74
2023/10/25 01:48:37;;;;;;;3.10;2.80;;;;;;;;;;1026320;28;20105;-74
2023/10/25 01:49:08;;;;;;;1.60;1.50;;;;;;;;;;1024674;28;20078;-75
2023/10/25 01:49:38;;;;;;;3.70;1.95;;;;;;;;;;1025640;28;20438;-74
2023/10/25 01:50:08;;;;;;;3.15;2.85;;;;;;;;;;1026256;28;21011;-75
2023/10/25 01:50:39;;;;;;;1.08;1.05;;;;;;;;;;1026206;28;20030;-75
2023/10/25 01:51:10;;;;;;;2.88;2.00;;;;;;;;;;1022596;28;20209;-74
2023/10/25 01:51:40;;;;;;;2.15;1.95;;;;;;;;;;1024190;28;20050;-74
2023/10/25 01:52:12;;;;;;;0.70;0.70;;;;;;;;;;1023915;28;20135;-74
2023/10/25 01:52:43;;;;;;;5.57;2.67;;;;;;;;;;1025483;28;20202;-74
2023/10/25 01:53:13;;;;;;;1.75;1.63;;;;;;;;;;1024780;28;20446;-74
2023/10/25 01:53:44;;;;;;;1.67;0.82;;;;;;;;;;1025586;28;20609;-74
2023/10/25 01:54:14;;;;;;;0.77;0.77;;;;;;;;;;1025188;28;20023;-74
2023/10/25 01:54:46;;;;;;;2.25;1.63;;;;;;;;;;1026502;28;20410;-74
2023/10/25 01:55:16;;;;;;;6.10;3.95;;;;;;;;;;1025466;28;20027;-74
2023/10/25 01:55:50;;;;;;;4.57;3.75;;;;;;;;;;1024534;28;20034;-74
2023/10/25 01:56:21;;;;;;;4.47;2.42;;;;;;;;;;1025227;28;21288;-74
2023/10/25 01:56:51;;;;;;;1.75;1.63;;;;;;;;;;1026687;28;20173;-74
2023/10/25 01:57:21;;;;;;;3.78;1.40;;;;;;;;;;1022476;28;20394;-74
2023/10/25 01:57:52;;;;;;;1.85;1.75;;;;;;;;;;1023525;28;20124;-74
2023/10/25 01:58:22;;;;;;;0.90;0.73;;;;;;;;;;1023250;28;20459;-74
2023/10/25 01:58:53;;;;;;;3.15;1.70;;;;;;;;;;1023548;28;20124;-74
2023/10/25 01:59:23;;;;;;;1.20;1.00;;;;;;;;;;1024345;28;20089;-74
2023/10/25 01:59:54;;;;;;;1.27;1.25;;;;;;;;;;1024050;28;20046;-74
2023/10/25 02:00:24;;;;;;;2.75;2.22;;;;;;;;;;1022790;28;20066;-74
2023/10/25 02:00:54;;;;;;;1.08;1.08;;;;;;;;;;1023157;28;20035;-74
2023/10/25 02:01:25;;;;;;;0.88;0.75;;;;;;;;;;1022556;28;20081;-74
2023/10/25 02:01:55;;;;;;;4.28;3.58;;;;;;;;;;1023788;28;20480;-74
2023/10/25 02:02:26;;;;;;;2.58;2.33;;;;;;;;;;1022529;28;20031;-73
2023/10/25 02:02:56;;;;;;;1.90;1.73;;;;;;;;;;1023276;28;20406;-73
2023/10/25 02:03:27;;;;;;;10.35;3.88;;;;;;;;;;1022203;28;20130;-73
2023/10/25 02:03:57;;;;;;;1.73;1.50;;;;;;;;;;1022643;28;20023;-73
2023/10/25 02:04:28;;;;;;;4.35;2.70;;;;;;;;;;1022549;28;20035;-73
2023/10/25 02:04:58;;;;;;;1.25;1.20;;;;;;;;;;1023648;28;20019;-73
2023/10/25 02:05:29;;;;;;;10.75;3.67;;;;;;;;;;1022547;28;20065;-74
2023/10/25 02:05:59;;;;;;;4.85;3.17;;;;;;;;;;1027015;28;20023;-74
2023/10/25 02:06:30;;;;;;;2.90;2.70;;;;;;;;;;1026031;28;20089;-74
2023/10/25 02:07:02;;;;;;;6.55;2.58;;;;;;;;;;1027202;28;20034;-74
2023/10/25 02:07:32;;;;;;;6.18;5.55;;;;;;;;;;1025744;28;20399;-73
2023/10/25 02:08:03;;;;;;;18.08;7.35;;;;;;;;;;1023704;28;20019;-73
2023/10/25 02:08:33;;;;;;;10.15;6.65;;;;;;;;;;1021525;29;20035;-73
2023/10/25 02:09:04;;;;;;;6.20;5.43;;;;;;;;;;1027096;28;20018;-73
2023/10/25 02:09:34;;;;;;;8.35;7.65;;;;;;;;;;1026662;28;20053;-74
2023/10/25 02:10:05;;;;;;;9.88;9.10;;;;;;;;;;1025821;28;20121;-74
2023/10/25 02:10:35;;;;;;;18.67;15.90;;;;;;;;;;1025687;28;20033;-73
2023/10/25 02:11:06;;;;;;;25.83;23.40;;;;;;;;;;1021815;28;20023;-73
2023/10/25 02:11:37;;;;;;;16.23;14.38;;;;;;;;;;1023403;28;20034;-73
2023/10/25 02:12:07;;;;;;;21.98;20.20;;;;;;;;;;1022896;29;20438;-73
2023/10/25 02:12:38;;;;;;;20.23;18.38;;;;;;;;;;1021956;29;20058;-74
2023/10/25 02:13:08;;;;;;;20.10;18.33;;;;;;;;;;1022717;29;20023;-74
2023/10/25 02:13:39;;;;;;;19.30;17.75;;;;;;;;;;1022096;28;20074;-74
2023/10/25 02:14:10;;;;;;;13.63;12.13;;;;;;;;;;1022742;28;20023;-74
2023/10/25 02:14:40;;;;;;;18.83;17.10;;;;;;;;;;1022788;29;20066;-74
2023/10/25 02:15:11;;;;;;;15.00;13.50;;;;;;;;;;1022980;29;20118;-74
2023/10/25 02:15:41;;;;;;;14.20;12.27;;;;;;;;;;1022497;29;20033;-74
2023/10/25 02:16:15;;;;;;;18.20;16.35;;;;;;;;;;1022344;29;20029;-74
2023/10/25 02:16:46;;;;;;;9.25;8.35;;;;;;;;;;1022575;29;20506;-74
2023/10/25 02:17:17;;;;;;;15.10;12.52;;;;;;;;;;1023844;28;20063;-74
2023/10/25 02:17:47;;;;;;;22.55;11.90;;;;;;;;;;1022928;29;20082;-74
2023/10/25 02:18:18;;;;;;;8.82;8.05;;;;;;;;;;1023371;28;20554;-74
2023/10/25 02:18:48;;;;;;;14.02;12.85;;;;;;;;;;1022161;28;20042;-74
2023/10/25 02:19:19;;;;;;;9.95;9.25;;;;;;;;;;1022946;29;20086;-75
2023/10/25 02:19:49;;;;;;;10.23;8.73;;;;;;;;;;1023274;28;20073;-75
2023/10/25 02:20:20;;;;;;;11.38;8.82;;;;;;;;;;1022786;29;20023;-75
2023/10/25 02:20:50;;;;;;;12.10;11.15;;;;;;;;;;1022783;28;20471;-74
2023/10/25 02:21:21;;;;;;;11.38;10.25;;;;;;;;;;1023447;29;20372;-74
2023/10/25 02:21:51;;;;;;;6.45;6.03;;;;;;;;;;1021903;29;20027;-74
2023/10/25 02:22:22;;;;;;;10.15;8.93;;;;;;;;;;1022948;28;20082;-74
2023/10/25 02:22:52;;;;;;;10.18;6.90;;;;;;;;;;1026390;28;20031;-74
2023/10/25 02:23:22;;;;;;;24.05;10.73;;;;;;;;;;1026984;28;20347;-74
2023/10/25 02:23:53;;;;;;;8.40;7.75;;;;;;;;;;1026604;28;20034;-74
2023/10/25 02:24:23;;;;;;;18.10;11.23;;;;;;;;;;1026185;28;20029;-75
2023/10/25 02:24:54;;;;;;;14.27;11.32;;;;;;;;;;1022203;29;20546;-75
2023/10/25 02:25:24;;;;;;;14.52;12.77;;;;;;;;;;1022953;29;20027;-74
2023/10/25 02:25:55;;;;;;;11.93;8.25;;;;;;;;;;1023451;28;20027;-74
2023/10/25 02:26:27;;;;;;;12.45;11.32;;;;;;;;;;1022749;28;20051;-75
2023/10/25 02:26:57;;;;;;;25.00;13.13;;;;;;;;;;1022199;29;20032;-74
2023/10/25 02:27:28;;;;;;;10.55;9.48;;;;;;;;;;1021912;29;20023;-74
2023/10/25 02:27:58;;;;;;;11.60;10.27;;;;;;;;;;1022600;28;20033;-75
2023/10/25 02:28:28;;;;;;;9.35;8.55;;;;;;;;;;1022810;28;20023;-75
2023/10/25 02:28:59;;;;;;;12.75;8.93;;;;;;;;;;1025477;28;20529;-75
2023/10/25 02:29:31;;;;;;;19.42;7.88;;;;;;;;;;1023945;28;20141;-74
2023/10/25 02:30:02;;;;;;;19.17;12.43;;;;;;;;;;1023349;28;20059;-75
2023/10/25 02:30:33;;;;;;;10.15;9.25;;;;;;;;;;1022708;29;20062;-74
2023/10/25 02:31:03;;;;;;;6.85;6.00;;;;;;;;;;1023215;28;20446;-74
2023/10/25 02:31:34;;;;;;;13.30;12.07;;;;;;;;;;1024706;28;20027;-74
2023/10/25 02:32:07;;;;;;;8.45;7.72;;;;;;;;;;1025514;28;20044;-74
2023/10/25 02:32:38;;;;;;;11.15;10.35;;;;;;;;;;1022369;28;20434;-74
2023/10/25 02:33:08;;;;;;;9.38;8.70;;;;;;;;;;1021601;29;20103;-74
2023/10/25 02:33:39;;;;;;;16.00;12.13;;;;;;;;;;1022349;29;20031;-74
2023/10/25 02:34:09;;;;;;;11.40;10.32;;;;;;;;;;1017788;29;20036;-74
2023/10/25 02:34:40;;;;;;;10.52;9.65;;;;;;;;;;1022189;29;20074;-74
2023/10/25 02:35:10;;;;;;;11.88;10.65;;;;;;;;;;1018477;29;20059;-74
2023/10/25 02:35:41;;;;;;;9.07;8.23;;;;;;;;;;1018317;29;20069;-74
2023/10/25 02:36:11;;;;;;;7.90;7.25;;;;;;;;;;1020967;29;20145;-74
2023/10/25 02:36:42;;;;;;;8.93;8.02;;;;;;;;;;1021975;29;20033;-74
2023/10/25 02:37:12;;;;;;;11.52;10.35;;;;;;;;;;1022504;28;20043;-74
2023/10/25 02:37:43;;;;;;;15.52;11.48;;;;;;;;;;1021790;29;20015;-74
2023/10/25 02:38:13;;;;;;;12.25;11.18;;;;;;;;;;1021644;29;20031;-74
2023/10/25 02:38:46;;;;;;;8.15;7.55;;;;;;;;;;1023043;28;20038;-74
2023/10/25 02:39:17;;;;;;;11.25;9.52;;;;;;;;;;1019743;28;20032;-74
2023/10/25 02:39:47;;;;;;;7.93;7.22;;;;;;;;;;1020557;29;20046;-74
2023/10/25 02:40:18;;;;;;;7.45;6.63;;;;;;;;;;1019780;29;20039;-74
2023/10/25 02:40:48;;;;;;;9.82;8.35;;;;;;;;;;1021725;28;20071;-75
2023/10/25 02:41:19;;;;;;;8.43;7.65;;;;;;;;;;1021339;28;20539;-72
2023/10/25 02:41:49;;;;;;;7.75;7.15;;;;;;;;;;1020935;28;20539;-74
2023/10/25 02:42:20;;;;;;;10.73;9.70;;;;;;;;;;1021683;29;20023;-74
2023/10/25 02:42:50;;;;;;;9.30;8.57;;;;;;;;;;1021365;29;20034;-72
2023/10/25 02:43:21;;;;;;;3.78;3.55;;;;;;;;;;1022130;29;20476;-74
2023/10/25 02:43:51;;;;;;;9.20;8.35;;;;;;;;;;1021261;28;20019;-74
2023/10/25 02:44:22;;;;;;;7.35;6.75;;;;;;;;;;1022000;28;20031;-74
2023/10/25 02:44:52;;;;;;;5.25;4.82;;;;;;;;;;1024076;28;20079;-74
2023/10/25 02:45:23;;;;;;;8.27;7.68;;;;;;;;;;1023703;28;20032;-72
2023/10/25 02:45:59;;;;;;;5.40;4.85;;;;;;;;;;1023260;28;20023;-73
2023/10/25 02:46:30;;;;;;;9.00;7.25;;;;;;;;;;1022435;28;20582;-72
2023/10/25 02:47:00;;;;;;;10.88;10.02;;;;;;;;;;1024717;28;20130;-73
2023/10/25 02:47:31;;;;;;;8.00;7.40;;;;;;;;;;1021359;28;20638;-73
2023/10/25 02:48:01;;;;;;;7.25;6.70;;;;;;;;;;1024899;28;20458;-72
2023/10/25 02:48:32;;;;;;;6.57;5.97;;;;;;;;;;1021022;28;20027;-73
2023/10/25 02:49:02;;;;;;;8.20;7.47;;;;;;;;;;1020576;28;20030;-73
2023/10/25 02:49:33;;;;;;;7.22;6.25;;;;;;;;;;1021405;29;20027;-73
2023/10/25 02:50:04;;;;;;;5.30;4.85;;;;;;;;;;1022485;28;20442;-73
2023/10/25 02:50:36;;;;;;;6.60;6.03;;;;;;;;;;1022364;29;20444;-73
2023/10/25 02:51:10;;;;;;;17.83;7.50;;;;;;;;;;1022300;29;20466;-73
2023/10/25 02:51:41;;;;;;;5.95;5.50;;;;;;;;;;1022499;28;20054;-73
2023/10/25 02:52:11;;;;;;;5.20;4.80;;;;;;;;;;1019708;29;20063;-73
2023/10/25 02:52:46;;;;;;;13.30;9.40;;;;;;;;;;1019390;28;20130;-72
2023/10/25 02:53:16;;;;;;;8.43;7.55;;;;;;;;;;1019407;28;20057;-72
2023/10/25 02:53:47;;;;;;;8.05;7.18;;;;;;;;;;1024267;28;20543;-73
2023/10/25 02:54:17;;;;;;;7.93;7.25;;;;;;;;;;1022070;29;20031;-73
2023/10/25 02:54:48;;;;;;;7.88;6.60;;;;;;;;;;1023107;28;20035;-73
2023/10/25 02:55:18;;;;;;;8.48;5.60;;;;;;;;;;1021597;28;20114;-73
2023/10/25 02:55:49;;;;;;;7.55;7.07;;;;;;;;;;1022786;28;20523;-73
2023/10/25 02:56:20;;;;;;;7.35;6.57;;;;;;;;;;1021720;29;20129;-72
2023/10/25 02:56:50;;;;;;;6.97;6.35;;;;;;;;;;1022572;29;20446;-72
2023/10/25 02:57:20;;;;;;;7.47;5.65;;;;;;;;;;1021081;29;20624;-73
2023/10/25 02:57:51;;;;;;;13.48;10.65;;;;;;;;;;1021909;29;20041;-73
2023/10/25 02:58:21;;;;;;;8.00;7.40;;;;;;;;;;1021279;29;20089;-73
2023/10/25 02:58:53;;;;;;;6.82;6.32;;;;;;;;;;1022059;28;20061;-73
2023/10/25 02:59:24;;;;;;;3.90;3.55;;;;;;;;;;1020991;28;20028;-73
2023/10/25 02:59:54;;;;;;;7.10;6.60;;;;;;;;;;1022280;28;20035;-73
2023/10/25 03:00:28;;;;;;;9.68;8.88;;;;;;;;;;1023131;28;20031;-72
2023/10/25 03:00:59;;;;;;;6.18;5.65;;;;;;;;;;1024232;28;20035;-72
2023/10/25 03:01:29;;;;;;;5.35;4.95;;;;;;;;;;1023024;28;20023;-75
2023/10/25 03:02:00;;;;;;;7.88;7.18;;;;;;;;;;1018427;29;20027;-73
2023/10/25 03:02:31;;;;;;;10.93;6.00;;;;;;;;;;1019832;29;20031;-72
2023/10/25 03:03:01;;;;;;;6.82;6.25;;;;;;;;;;1020811;29;20023;-73